sensor_id;sensor_type;location;lat;lon;timestamp;P1;durP1;ratioP1;P2;durP2;ratioP2
28166;SDS011;15455;53.376;-6.262;2022-07-25T00:01:23;5.43;;;1.85;;
28166;SDS011;15455;53.376;-6.262;2022-07-25T00:04:14;5.25;;;2.53;;
28166;SDS011;15455;53.376;-6.262;2022-07-25T00:07:00;4.63;;;1.80;;
28166;SDS011;15455;53.376;-6.262;2022-07-25T00:09:46;5.95;;;2.75;;
28166;SDS011;15455;53.376;-6.262;2022-07-25T00:12:32;10.75;;;2.30;;
28166;SDS011;15455;53.376;-6.262;2022-07-25T00:15:18;5.63;;;1.85;;
28166;SDS011;15455;53.376;-6.262;2022-07-25T00:18:03;7.93;;;1.88;;
28166;SDS011;15455;53.376;-6.262;2022-07-25T00:20:48;4.65;;;1.73;;
28166;SDS011;15455;53.376;-6.262;2022-07-25T00:23:34;4.75;;;2.17;;
28166;SDS011;15455;53.376;-6.262;2022-07-25T00:26:19;8.77;;;1.90;;
28166;SDS011;15455;53.376;-6.262;2022-07-25T00:29:05;4.95;;;2.25;;
28166;SDS011;15455;53.376;-6.262;2022-07-25T00:31:50;5.40;;;2.10;;
28166;SDS011;15455;53.376;-6.262;2022-07-25T00:34:36;8.70;;;2.47;;
28166;SDS011;15455;53.376;-6.262;2022-07-25T00:37:21;6.00;;;2.20;;
28166;SDS011;15455;53.376;-6.262;2022-07-25T00:40:07;3.13;;;1.70;;
28166;SDS011;15455;53.376;-6.262;2022-07-25T00:42:53;4.80;;;2.40;;
28166;SDS011;15455;53.376;-6.262;2022-07-25T00:45:39;5.60;;;2.15;;
28166;SDS011;15455;53.376;-6.262;2022-07-25T00:48:24;3.38;;;2.28;;
28166;SDS011;15455;53.376;-6.262;2022-07-25T00:51:10;8.90;;;2.53;;
28166;SDS011;15455;53.376;-6.262;2022-07-25T00:53:56;6.13;;;2.40;;
28166;SDS011;15455;53.376;-6.262;2022-07-25T00:56:42;7.85;;;2.33;;
28166;SDS011;15455;53.376;-6.262;2022-07-25T00:59:28;8.27;;;2.88;;
28166;SDS011;15455;53.376;-6.262;2022-07-25T01:02:13;7.13;;;2.80;;
28166;SDS011;15455;53.376;-6.262;2022-07-25T01:04:59;12.30;;;2.60;;
28166;SDS011;15455;53.376;-6.262;2022-07-25T01:07:44;8.73;;;2.30;;
28166;SDS011;15455;53.376;-6.262;2022-07-25T01:10:31;6.80;;;2.20;;
28166;SDS011;15455;53.376;-6.262;2022-07-25T01:13:17;10.40;;;1.92;;
28166;SDS011;15455;53.376;-6.262;2022-07-25T01:16:04;8.57;;;2.17;;
28166;SDS011;15455;53.376;-6.262;2022-07-25T01:18:50;9.13;;;3.47;;
28166;SDS011;15455;53.376;-6.262;2022-07-25T01:21:36;8.52;;;2.70;;
28166;SDS011;15455;53.376;-6.262;2022-07-25T01:24:23;7.15;;;2.92;;
28166;SDS011;15455;53.376;-6.262;2022-07-25T01:27:08;7.63;;;2.75;;
28166;SDS011;15455;53.376;-6.262;2022-07-25T01:30:01;9.20;;;2.47;;
28166;SDS011;15455;53.376;-6.262;2022-07-25T01:32:46;6.97;;;2.80;;
28166;SDS011;15455;53.376;-6.262;2022-07-25T01:35:32;13.68;;;2.78;;
28166;SDS011;15455;53.376;-6.262;2022-07-25T01:38:17;11.30;;;2.58;;
28166;SDS011;15455;53.376;-6.262;2022-07-25T01:41:03;10.00;;;2.70;;
28166;SDS011;15455;53.376;-6.262;2022-07-25T01:43:49;9.50;;;2.60;;
28166;SDS011;15455;53.376;-6.262;2022-07-25T01:46:34;4.50;;;2.42;;
28166;SDS011;15455;53.376;-6.262;2022-07-25T01:49:20;12.65;;;3.10;;
28166;SDS011;15455;53.376;-6.262;2022-07-25T01:52:05;5.70;;;2.65;;
28166;SDS011;15455;53.376;-6.262;2022-07-25T01:54:51;5.03;;;3.17;;
28166;SDS011;15455;53.376;-6.262;2022-07-25T01:57:37;9.50;;;2.58;;
28166;SDS011;15455;53.376;-6.262;2022-07-25T02:00:24;6.72;;;2.60;;
28166;SDS011;15455;53.376;-6.262;2022-07-25T02:03:10;7.43;;;2.80;;
28166;SDS011;15455;53.376;-6.262;2022-07-25T02:06:14;6.57;;;2.75;;
28166;SDS011;15455;53.376;-6.262;2022-07-25T02:08:59;4.93;;;2.80;;
28166;SDS011;15455;53.376;-6.262;2022-07-25T02:11:45;10.70;;;2.65;;
28166;SDS011;15455;53.376;-6.262;2022-07-25T02:14:30;7.30;;;2.40;;
28166;SDS011;15455;53.376;-6.262;2022-07-25T02:17:16;5.32;;;2.60;;
28166;SDS011;15455;53.376;-6.262;2022-07-25T02:20:02;9.25;;;2.33;;
28166;SDS011;15455;53.376;-6.262;2022-07-25T02:22:47;4.93;;;2.22;;
28166;SDS011;15455;53.376;-6.262;2022-07-25T02:25:33;3.85;;;1.70;;
28166;SDS011;15455;53.376;-6.262;2022-07-25T02:28:19;2.50;;;2.20;;
28166;SDS011;15455;53.376;-6.262;2022-07-25T02:31:05;7.43;;;2.00;;
28166;SDS011;15455;53.376;-6.262;2022-07-25T02:33:51;4.68;;;2.22;;
28166;SDS011;15455;53.376;-6.262;2022-07-25T02:36:36;4.95;;;2.15;;
28166;SDS011;15455;53.376;-6.262;2022-07-25T02:39:22;5.90;;;1.73;;
28166;SDS011;15455;53.376;-6.262;2022-07-25T02:42:09;6.22;;;2.17;;
28166;SDS011;15455;53.376;-6.262;2022-07-25T02:44:54;6.00;;;1.90;;
28166;SDS011;15455;53.376;-6.262;2022-07-25T02:47:40;4.15;;;2.47;;
28166;SDS011;15455;53.376;-6.262;2022-07-25T02:50:25;4.15;;;2.10;;
28166;SDS011;15455;53.376;-6.262;2022-07-25T02:53:11;5.68;;;1.60;;
28166;SDS011;15455;53.376;-6.262;2022-07-25T02:55:56;3.13;;;2.05;;
28166;SDS011;15455;53.376;-6.262;2022-07-25T02:58:42;4.80;;;2.00;;
28166;SDS011;15455;53.376;-6.262;2022-07-25T03:01:28;6.22;;;2.30;;
28166;SDS011;15455;53.376;-6.262;2022-07-25T03:04:14;5.10;;;2.40;;
28166;SDS011;15455;53.376;-6.262;2022-07-25T03:07:01;5.95;;;2.83;;
28166;SDS011;15455;53.376;-6.262;2022-07-25T03:09:46;5.75;;;2.45;;
28166;SDS011;15455;53.376;-6.262;2022-07-25T03:12:32;5.18;;;2.15;;
28166;SDS011;15455;53.376;-6.262;2022-07-25T03:15:18;11.30;;;2.92;;
28166;SDS011;15455;53.376;-6.262;2022-07-25T03:18:03;4.60;;;2.47;;
28166;SDS011;15455;53.376;-6.262;2022-07-25T03:20:48;3.00;;;2.50;;
28166;SDS011;15455;53.376;-6.262;2022-07-25T03:23:34;4.40;;;2.17;;
28166;SDS011;15455;53.376;-6.262;2022-07-25T03:26:19;6.63;;;2.08;;
28166;SDS011;15455;53.376;-6.262;2022-07-25T03:29:05;7.28;;;2.58;;
28166;SDS011;15455;53.376;-6.262;2022-07-25T03:31:50;6.45;;;2.25;;
28166;SDS011;15455;53.376;-6.262;2022-07-25T03:34:36;4.50;;;2.63;;
28166;SDS011;15455;53.376;-6.262;2022-07-25T03:37:22;7.07;;;2.38;;
28166;SDS011;15455;53.376;-6.262;2022-07-25T03:40:08;3.67;;;2.40;;
28166;SDS011;15455;53.376;-6.262;2022-07-25T03:42:53;3.83;;;2.47;;
28166;SDS011;15455;53.376;-6.262;2022-07-25T03:45:39;3.60;;;2.30;;
28166;SDS011;15455;53.376;-6.262;2022-07-25T03:48:25;3.50;;;2.30;;
28166;SDS011;15455;53.376;-6.262;2022-07-25T03:51:11;4.90;;;2.30;;
28166;SDS011;15455;53.376;-6.262;2022-07-25T03:53:56;2.63;;;1.77;;
28166;SDS011;15455;53.376;-6.262;2022-07-25T03:56:49;5.60;;;2.30;;
28166;SDS011;15455;53.376;-6.262;2022-07-25T03:59:35;4.22;;;2.10;;
28166;SDS011;15455;53.376;-6.262;2022-07-25T04:02:21;4.55;;;2.22;;
28166;SDS011;15455;53.376;-6.262;2022-07-25T04:05:07;5.93;;;2.28;;
28166;SDS011;15455;53.376;-6.262;2022-07-25T04:07:53;4.13;;;2.13;;
28166;SDS011;15455;53.376;-6.262;2022-07-25T04:10:39;3.13;;;2.10;;
28166;SDS011;15455;53.376;-6.262;2022-07-25T04:13:25;4.28;;;2.15;;
28166;SDS011;15455;53.376;-6.262;2022-07-25T04:16:10;4.10;;;2.80;;
28166;SDS011;15455;53.376;-6.262;2022-07-25T04:19:06;4.22;;;1.98;;
28166;SDS011;15455;53.376;-6.262;2022-07-25T04:21:52;2.90;;;2.00;;
28166;SDS011;15455;53.376;-6.262;2022-07-25T04:24:37;3.25;;;2.22;;
28166;SDS011;15455;53.376;-6.262;2022-07-25T04:27:23;2.78;;;1.83;;
28166;SDS011;15455;53.376;-6.262;2022-07-25T04:30:09;2.90;;;1.92;;
28166;SDS011;15455;53.376;-6.262;2022-07-25T04:32:55;5.65;;;2.22;;
28166;SDS011;15455;53.376;-6.262;2022-07-25T04:35:40;2.83;;;2.05;;
28166;SDS011;15455;53.376;-6.262;2022-07-25T04:38:26;4.50;;;1.95;;
28166;SDS011;15455;53.376;-6.262;2022-07-25T04:41:12;1.77;;;1.60;;
28166;SDS011;15455;53.376;-6.262;2022-07-25T04:43:57;2.33;;;1.70;;
28166;SDS011;15455;53.376;-6.262;2022-07-25T04:46:42;2.75;;;1.67;;
28166;SDS011;15455;53.376;-6.262;2022-07-25T04:49:28;5.63;;;2.03;;
28166;SDS011;15455;53.376;-6.262;2022-07-25T04:52:13;4.95;;;1.80;;
28166;SDS011;15455;53.376;-6.262;2022-07-25T04:54:59;2.72;;;1.88;;
28166;SDS011;15455;53.376;-6.262;2022-07-25T04:57:44;4.65;;;1.90;;
28166;SDS011;15455;53.376;-6.262;2022-07-25T05:00:31;4.50;;;1.55;;
28166;SDS011;15455;53.376;-6.262;2022-07-25T05:03:17;3.42;;;1.88;;
28166;SDS011;15455;53.376;-6.262;2022-07-25T05:06:02;2.95;;;1.67;;
28166;SDS011;15455;53.376;-6.262;2022-07-25T05:08:48;6.20;;;2.17;;
28166;SDS011;15455;53.376;-6.262;2022-07-25T05:11:33;2.58;;;2.08;;
28166;SDS011;15455;53.376;-6.262;2022-07-25T05:14:19;3.97;;;1.67;;
28166;SDS011;15455;53.376;-6.262;2022-07-25T05:17:05;2.45;;;1.92;;
28166;SDS011;15455;53.376;-6.262;2022-07-25T05:19:50;4.80;;;1.67;;
28166;SDS011;15455;53.376;-6.262;2022-07-25T05:22:36;2.80;;;1.42;;
28166;SDS011;15455;53.376;-6.262;2022-07-25T05:25:21;3.88;;;1.98;;
28166;SDS011;15455;53.376;-6.262;2022-07-25T05:28:07;3.10;;;2.10;;
28166;SDS011;15455;53.376;-6.262;2022-07-25T05:30:53;3.85;;;2.13;;
28166;SDS011;15455;53.376;-6.262;2022-07-25T05:33:38;2.28;;;1.52;;
28166;SDS011;15455;53.376;-6.262;2022-07-25T05:36:24;3.00;;;1.42;;
28166;SDS011;15455;53.376;-6.262;2022-07-25T05:39:09;6.40;;;1.75;;
28166;SDS011;15455;53.376;-6.262;2022-07-25T05:41:55;4.72;;;1.80;;
28166;SDS011;15455;53.376;-6.262;2022-07-25T05:44:40;2.78;;;1.48;;
28166;SDS011;15455;53.376;-6.262;2022-07-25T05:47:26;3.78;;;1.30;;
28166;SDS011;15455;53.376;-6.262;2022-07-25T05:50:11;3.72;;;1.23;;
28166;SDS011;15455;53.376;-6.262;2022-07-25T05:52:56;2.30;;;1.30;;
28166;SDS011;15455;53.376;-6.262;2022-07-25T05:55:42;2.85;;;1.02;;
28166;SDS011;15455;53.376;-6.262;2022-07-25T05:58:27;3.17;;;0.98;;
28166;SDS011;15455;53.376;-6.262;2022-07-25T06:01:14;3.38;;;0.88;;
28166;SDS011;15455;53.376;-6.262;2022-07-25T06:04:00;2.42;;;0.75;;
28166;SDS011;15455;53.376;-6.262;2022-07-25T06:06:45;0.80;;;0.60;;
28166;SDS011;15455;53.376;-6.262;2022-07-25T06:09:37;1.27;;;0.85;;
28166;SDS011;15455;53.376;-6.262;2022-07-25T06:12:23;1.40;;;0.70;;
28166;SDS011;15455;53.376;-6.262;2022-07-25T06:15:08;0.57;;;0.35;;
28166;SDS011;15455;53.376;-6.262;2022-07-25T06:18:06;1.50;;;0.60;;
28166;SDS011;15455;53.376;-6.262;2022-07-25T06:20:52;1.65;;;0.60;;
28166;SDS011;15455;53.376;-6.262;2022-07-25T06:23:38;0.77;;;0.70;;
28166;SDS011;15455;53.376;-6.262;2022-07-25T06:26:23;2.00;;;0.70;;
28166;SDS011;15455;53.376;-6.262;2022-07-25T06:29:09;1.35;;;0.70;;
28166;SDS011;15455;53.376;-6.262;2022-07-25T06:31:54;0.95;;;0.40;;
28166;SDS011;15455;53.376;-6.262;2022-07-25T06:34:40;1.83;;;0.60;;
28166;SDS011;15455;53.376;-6.262;2022-07-25T06:37:25;0.98;;;0.40;;
28166;SDS011;15455;53.376;-6.262;2022-07-25T06:40:11;1.83;;;0.38;;
28166;SDS011;15455;53.376;-6.262;2022-07-25T06:42:57;4.18;;;0.70;;
28166;SDS011;15455;53.376;-6.262;2022-07-25T06:45:43;1.25;;;0.57;;
28166;SDS011;15455;53.376;-6.262;2022-07-25T06:48:31;3.08;;;0.63;;
28166;SDS011;15455;53.376;-6.262;2022-07-25T06:51:17;2.05;;;0.52;;
28166;SDS011;15455;53.376;-6.262;2022-07-25T06:54:02;2.72;;;0.40;;
28166;SDS011;15455;53.376;-6.262;2022-07-25T06:56:49;4.45;;;0.40;;
28166;SDS011;15455;53.376;-6.262;2022-07-25T06:59:34;2.35;;;0.52;;
28166;SDS011;15455;53.376;-6.262;2022-07-25T07:02:20;1.65;;;0.45;;
28166;SDS011;15455;53.376;-6.262;2022-07-25T07:05:05;0.70;;;0.47;;
28166;SDS011;15455;53.376;-6.262;2022-07-25T07:07:51;2.50;;;0.65;;
28166;SDS011;15455;53.376;-6.262;2022-07-25T07:10:37;3.72;;;0.30;;
28166;SDS011;15455;53.376;-6.262;2022-07-25T07:13:24;6.82;;;1.05;;
28166;SDS011;15455;53.376;-6.262;2022-07-25T07:16:09;0.98;;;0.30;;
28166;SDS011;15455;53.376;-6.262;2022-07-25T07:18:56;0.28;;;0.22;;
28166;SDS011;15455;53.376;-6.262;2022-07-25T07:21:42;0.57;;;0.13;;
28166;SDS011;15455;53.376;-6.262;2022-07-25T07:24:28;2.72;;;0.30;;
28166;SDS011;15455;53.376;-6.262;2022-07-25T07:27:13;1.77;;;0.50;;
28166;SDS011;15455;53.376;-6.262;2022-07-25T07:30:03;0.47;;;0.22;;
28166;SDS011;15455;53.376;-6.262;2022-07-25T07:32:48;5.53;;;0.65;;
28166;SDS011;15455;53.376;-6.262;2022-07-25T07:35:34;3.60;;;0.30;;
28166;SDS011;15455;53.376;-6.262;2022-07-25T07:38:20;0.35;;;0.10;;
28166;SDS011;15455;53.376;-6.262;2022-07-25T07:41:05;2.95;;;0.28;;
28166;SDS011;15455;53.376;-6.262;2022-07-25T07:43:51;1.42;;;0.20;;
28166;SDS011;15455;53.376;-6.262;2022-07-25T07:46:37;1.20;;;0.38;;
28166;SDS011;15455;53.376;-6.262;2022-07-25T07:49:23;2.40;;;0.20;;
28166;SDS011;15455;53.376;-6.262;2022-07-25T07:52:08;0.68;;;0.20;;
28166;SDS011;15455;53.376;-6.262;2022-07-25T07:54:54;0.55;;;0.10;;
28166;SDS011;15455;53.376;-6.262;2022-07-25T07:57:58;0.80;;;0.15;;
28166;SDS011;15455;53.376;-6.262;2022-07-25T08:00:44;1.55;;;0.20;;
28166;SDS011;15455;53.376;-6.262;2022-07-25T08:03:31;1.52;;;0.20;;
28166;SDS011;15455;53.376;-6.262;2022-07-25T08:06:17;2.15;;;0.15;;
28166;SDS011;15455;53.376;-6.262;2022-07-25T08:09:02;1.52;;;0.30;;
28166;SDS011;15455;53.376;-6.262;2022-07-25T08:11:48;0.25;;;0.10;;
28166;SDS011;15455;53.376;-6.262;2022-07-25T08:14:34;0.22;;;0.20;;
28166;SDS011;15455;53.376;-6.262;2022-07-25T08:17:19;3.88;;;0.30;;
28166;SDS011;15455;53.376;-6.262;2022-07-25T08:20:12;3.13;;;0.40;;
28166;SDS011;15455;53.376;-6.262;2022-07-25T08:23:18;0.25;;;0.17;;
28166;SDS011;15455;53.376;-6.262;2022-07-25T08:26:04;2.88;;;0.38;;
28166;SDS011;15455;53.376;-6.262;2022-07-25T08:28:50;0.57;;;0.30;;
28166;SDS011;15455;53.376;-6.262;2022-07-25T08:31:57;2.97;;;0.70;;
28166;SDS011;15455;53.376;-6.262;2022-07-25T08:34:42;2.47;;;0.30;;
28166;SDS011;15455;53.376;-6.262;2022-07-25T08:37:28;0.82;;;0.20;;
28166;SDS011;15455;53.376;-6.262;2022-07-25T08:40:14;0.52;;;0.30;;
28166;SDS011;15455;53.376;-6.262;2022-07-25T08:43:01;1.67;;;0.20;;
28166;SDS011;15455;53.376;-6.262;2022-07-25T08:45:49;2.30;;;0.28;;
28166;SDS011;15455;53.376;-6.262;2022-07-25T08:48:36;1.83;;;0.30;;
28166;SDS011;15455;53.376;-6.262;2022-07-25T08:51:22;2.58;;;0.43;;
28166;SDS011;15455;53.376;-6.262;2022-07-25T08:54:09;0.20;;;0.20;;
28166;SDS011;15455;53.376;-6.262;2022-07-25T08:56:55;0.70;;;0.30;;
28166;SDS011;15455;53.376;-6.262;2022-07-25T08:59:41;3.08;;;0.30;;
28166;SDS011;15455;53.376;-6.262;2022-07-25T09:02:27;1.70;;;0.20;;
28166;SDS011;15455;53.376;-6.262;2022-07-25T09:05:13;2.92;;;0.38;;
28166;SDS011;15455;53.376;-6.262;2022-07-25T09:08:09;2.05;;;0.30;;
28166;SDS011;15455;53.376;-6.262;2022-07-25T09:11:00;0.30;;;0.20;;
28166;SDS011;15455;53.376;-6.262;2022-07-25T09:13:46;0.65;;;0.30;;
28166;SDS011;15455;53.376;-6.262;2022-07-25T09:16:42;0.85;;;0.25;;
28166;SDS011;15455;53.376;-6.262;2022-07-25T09:19:29;4.78;;;0.30;;
28166;SDS011;15455;53.376;-6.262;2022-07-25T09:22:15;2.38;;;0.30;;
28166;SDS011;15455;53.376;-6.262;2022-07-25T09:25:00;0.68;;;0.30;;
28166;SDS011;15455;53.376;-6.262;2022-07-25T09:27:46;1.30;;;0.20;;
28166;SDS011;15455;53.376;-6.262;2022-07-25T09:30:31;0.20;;;0.20;;
28166;SDS011;15455;53.376;-6.262;2022-07-25T09:33:17;2.72;;;0.40;;
28166;SDS011;15455;53.376;-6.262;2022-07-25T09:36:09;2.83;;;0.20;;
28166;SDS011;15455;53.376;-6.262;2022-07-25T09:38:57;3.78;;;0.73;;
28166;SDS011;15455;53.376;-6.262;2022-07-25T09:41:45;4.45;;;0.40;;
28166;SDS011;15455;53.376;-6.262;2022-07-25T09:44:30;0.50;;;0.30;;
28166;SDS011;15455;53.376;-6.262;2022-07-25T09:47:16;0.70;;;0.20;;
28166;SDS011;15455;53.376;-6.262;2022-07-25T09:50:03;0.45;;;0.30;;
28166;SDS011;15455;53.376;-6.262;2022-07-25T09:52:50;0.50;;;0.40;;
28166;SDS011;15455;53.376;-6.262;2022-07-25T09:55:39;0.73;;;0.30;;
28166;SDS011;15455;53.376;-6.262;2022-07-25T09:58:25;0.30;;;0.25;;
28166;SDS011;15455;53.376;-6.262;2022-07-25T10:01:12;0.20;;;0.20;;
28166;SDS011;15455;53.376;-6.262;2022-07-25T10:04:11;1.05;;;0.32;;
28166;SDS011;15455;53.376;-6.262;2022-07-25T10:07:21;0.55;;;0.30;;
28166;SDS011;15455;53.376;-6.262;2022-07-25T10:10:19;0.15;;;0.15;;
28166;SDS011;15455;53.376;-6.262;2022-07-25T10:13:11;3.65;;;0.22;;
28166;SDS011;15455;53.376;-6.262;2022-07-25T10:16:01;3.17;;;0.17;;
28166;SDS011;15455;53.376;-6.262;2022-07-25T10:18:58;0.25;;;0.10;;
28166;SDS011;15455;53.376;-6.262;2022-07-25T10:21:53;0.25;;;0.00;;
28166;SDS011;15455;53.376;-6.262;2022-07-25T10:24:42;3.60;;;0.47;;
28166;SDS011;15455;53.376;-6.262;2022-07-25T10:27:30;0.20;;;0.10;;
28166;SDS011;15455;53.376;-6.262;2022-07-25T10:30:38;0.57;;;0.20;;
28166;SDS011;15455;53.376;-6.262;2022-07-25T10:33:24;0.10;;;0.10;;
28166;SDS011;15455;53.376;-6.262;2022-07-25T10:36:10;0.13;;;0.10;;
28166;SDS011;15455;53.376;-6.262;2022-07-25T10:38:56;0.80;;;0.10;;
28166;SDS011;15455;53.376;-6.262;2022-07-25T10:41:49;1.67;;;0.25;;
28166;SDS011;15455;53.376;-6.262;2022-07-25T10:44:41;0.15;;;0.10;;
28166;SDS011;15455;53.376;-6.262;2022-07-25T10:47:33;2.55;;;0.20;;
28166;SDS011;15455;53.376;-6.262;2022-07-25T10:50:22;0.30;;;0.30;;
28166;SDS011;15455;53.376;-6.262;2022-07-25T10:56:28;2.05;;;0.25;;
28166;SDS011;15455;53.376;-6.262;2022-07-25T10:59:13;3.50;;;0.20;;
28166;SDS011;15455;53.376;-6.262;2022-07-25T11:02:19;4.85;;;0.30;;
28166;SDS011;15455;53.376;-6.262;2022-07-25T11:05:08;1.58;;;0.20;;
28166;SDS011;15455;53.376;-6.262;2022-07-25T11:07:53;1.80;;;0.10;;
28166;SDS011;15455;53.376;-6.262;2022-07-25T11:11:00;2.17;;;0.20;;
28166;SDS011;15455;53.376;-6.262;2022-07-25T11:13:46;0.28;;;0.10;;
28166;SDS011;15455;53.376;-6.262;2022-07-25T11:16:34;0.10;;;0.10;;
28166;SDS011;15455;53.376;-6.262;2022-07-25T11:22:12;1.55;;;0.00;;
28166;SDS011;15455;53.376;-6.262;2022-07-25T11:25:00;2.50;;;0.10;;
28166;SDS011;15455;53.376;-6.262;2022-07-25T11:27:57;3.30;;;0.35;;
28166;SDS011;15455;53.376;-6.262;2022-07-25T11:30:44;0.98;;;0.25;;
28166;SDS011;15455;53.376;-6.262;2022-07-25T11:33:29;0.10;;;0.10;;
28166;SDS011;15455;53.376;-6.262;2022-07-25T11:36:15;1.02;;;0.28;;
28166;SDS011;15455;53.376;-6.262;2022-07-25T11:39:02;1.05;;;0.20;;
28166;SDS011;15455;53.376;-6.262;2022-07-25T11:41:57;0.40;;;0.20;;
28166;SDS011;15455;53.376;-6.262;2022-07-25T11:44:44;1.13;;;0.20;;
28166;SDS011;15455;53.376;-6.262;2022-07-25T11:47:34;1.77;;;0.38;;
28166;SDS011;15455;53.376;-6.262;2022-07-25T11:50:27;3.92;;;0.55;;
28166;SDS011;15455;53.376;-6.262;2022-07-25T11:53:14;2.25;;;0.20;;
28166;SDS011;15455;53.376;-6.262;2022-07-25T11:56:09;1.70;;;0.40;;
28166;SDS011;15455;53.376;-6.262;2022-07-25T11:59:24;2.28;;;0.55;;
28166;SDS011;15455;53.376;-6.262;2022-07-25T12:02:19;2.10;;;0.40;;
28166;SDS011;15455;53.376;-6.262;2022-07-25T12:05:21;1.33;;;0.22;;
28166;SDS011;15455;53.376;-6.262;2022-07-25T12:08:17;0.28;;;0.13;;
28166;SDS011;15455;53.376;-6.262;2022-07-25T12:11:14;1.23;;;0.30;;
28166;SDS011;15455;53.376;-6.262;2022-07-25T12:14:05;1.27;;;0.28;;
28166;SDS011;15455;53.376;-6.262;2022-07-25T12:16:51;1.95;;;0.20;;
28166;SDS011;15455;53.376;-6.262;2022-07-25T12:19:38;2.00;;;0.30;;
28166;SDS011;15455;53.376;-6.262;2022-07-25T12:22:25;0.50;;;0.20;;
28166;SDS011;15455;53.376;-6.262;2022-07-25T12:25:10;2.80;;;0.40;;
28166;SDS011;15455;53.376;-6.262;2022-07-25T12:27:57;2.72;;;0.35;;
28166;SDS011;15455;53.376;-6.262;2022-07-25T12:30:43;1.52;;;0.60;;
28166;SDS011;15455;53.376;-6.262;2022-07-25T12:33:30;3.05;;;0.40;;
28166;SDS011;15455;53.376;-6.262;2022-07-25T12:36:19;1.83;;;0.30;;
28166;SDS011;15455;53.376;-6.262;2022-07-25T12:39:05;1.17;;;0.40;;
28166;SDS011;15455;53.376;-6.262;2022-07-25T12:41:51;1.55;;;0.40;;
28166;SDS011;15455;53.376;-6.262;2022-07-25T12:44:36;6.40;;;0.88;;
28166;SDS011;15455;53.376;-6.262;2022-07-25T12:47:22;2.65;;;0.45;;
28166;SDS011;15455;53.376;-6.262;2022-07-25T12:50:08;1.17;;;0.35;;
28166;SDS011;15455;53.376;-6.262;2022-07-25T12:52:54;1.48;;;0.52;;
28166;SDS011;15455;53.376;-6.262;2022-07-25T12:55:39;3.25;;;0.30;;
28166;SDS011;15455;53.376;-6.262;2022-07-25T12:58:25;5.60;;;0.38;;
28166;SDS011;15455;53.376;-6.262;2022-07-25T13:01:10;2.22;;;0.60;;
28166;SDS011;15455;53.376;-6.262;2022-07-25T13:03:57;4.55;;;0.65;;
28166;SDS011;15455;53.376;-6.262;2022-07-25T13:06:43;4.97;;;0.47;;
28166;SDS011;15455;53.376;-6.262;2022-07-25T13:09:29;0.60;;;0.20;;
28166;SDS011;15455;53.376;-6.262;2022-07-25T13:12:15;2.08;;;0.20;;
28166;SDS011;15455;53.376;-6.262;2022-07-25T13:15:01;0.60;;;0.10;;
28166;SDS011;15455;53.376;-6.262;2022-07-25T13:17:47;1.17;;;0.30;;
28166;SDS011;15455;53.376;-6.262;2022-07-25T13:20:32;1.58;;;0.30;;
28166;SDS011;15455;53.376;-6.262;2022-07-25T13:23:20;1.73;;;0.35;;
28166;SDS011;15455;53.376;-6.262;2022-07-25T13:26:09;1.83;;;0.30;;
28166;SDS011;15455;53.376;-6.262;2022-07-25T13:28:54;1.15;;;0.35;;
28166;SDS011;15455;53.376;-6.262;2022-07-25T13:31:44;4.30;;;0.40;;
28166;SDS011;15455;53.376;-6.262;2022-07-25T13:34:29;1.20;;;0.38;;
28166;SDS011;15455;53.376;-6.262;2022-07-25T13:37:14;2.85;;;0.50;;
28166;SDS011;15455;53.376;-6.262;2022-07-25T13:40:03;1.27;;;0.38;;
28166;SDS011;15455;53.376;-6.262;2022-07-25T13:42:50;3.50;;;0.30;;
28166;SDS011;15455;53.376;-6.262;2022-07-25T13:45:37;0.77;;;0.40;;
28166;SDS011;15455;53.376;-6.262;2022-07-25T13:48:23;0.60;;;0.20;;
28166;SDS011;15455;53.376;-6.262;2022-07-25T13:51:14;1.55;;;0.30;;
28166;SDS011;15455;53.376;-6.262;2022-07-25T13:54:01;1.05;;;0.50;;
28166;SDS011;15455;53.376;-6.262;2022-07-25T13:56:47;2.38;;;0.45;;
28166;SDS011;15455;53.376;-6.262;2022-07-25T13:59:32;1.95;;;0.60;;
28166;SDS011;15455;53.376;-6.262;2022-07-25T14:02:18;6.00;;;0.60;;
28166;SDS011;15455;53.376;-6.262;2022-07-25T14:05:04;3.40;;;0.73;;
28166;SDS011;15455;53.376;-6.262;2022-07-25T14:07:49;9.25;;;0.50;;
28166;SDS011;15455;53.376;-6.262;2022-07-25T14:10:35;2.15;;;0.40;;
28166;SDS011;15455;53.376;-6.262;2022-07-25T14:13:20;1.05;;;0.30;;
28166;SDS011;15455;53.376;-6.262;2022-07-25T14:16:06;1.55;;;0.47;;
28166;SDS011;15455;53.376;-6.262;2022-07-25T14:18:51;4.22;;;0.25;;
28166;SDS011;15455;53.376;-6.262;2022-07-25T14:21:39;6.70;;;0.65;;
28166;SDS011;15455;53.376;-6.262;2022-07-25T14:24:24;1.73;;;0.43;;
28166;SDS011;15455;53.376;-6.262;2022-07-25T14:27:10;1.55;;;0.35;;
28166;SDS011;15455;53.376;-6.262;2022-07-25T14:29:55;3.05;;;0.50;;
28166;SDS011;15455;53.376;-6.262;2022-07-25T14:32:41;2.47;;;0.32;;
28166;SDS011;15455;53.376;-6.262;2022-07-25T14:35:30;1.55;;;0.30;;
28166;SDS011;15455;53.376;-6.262;2022-07-25T14:38:16;0.55;;;0.30;;
28166;SDS011;15455;53.376;-6.262;2022-07-25T14:41:02;3.38;;;0.30;;
28166;SDS011;15455;53.376;-6.262;2022-07-25T14:43:54;1.85;;;0.35;;
28166;SDS011;15455;53.376;-6.262;2022-07-25T14:46:40;5.60;;;0.40;;
28166;SDS011;15455;53.376;-6.262;2022-07-25T14:49:28;2.70;;;0.32;;
28166;SDS011;15455;53.376;-6.262;2022-07-25T14:52:14;3.90;;;0.22;;
28166;SDS011;15455;53.376;-6.262;2022-07-25T14:55:00;2.10;;;0.22;;
28166;SDS011;15455;53.376;-6.262;2022-07-25T14:57:46;2.45;;;0.43;;
28166;SDS011;15455;53.376;-6.262;2022-07-25T15:00:32;3.35;;;0.85;;
28166;SDS011;15455;53.376;-6.262;2022-07-25T15:03:18;1.60;;;0.50;;
28166;SDS011;15455;53.376;-6.262;2022-07-25T15:06:05;2.17;;;0.50;;
28166;SDS011;15455;53.376;-6.262;2022-07-25T15:08:53;1.75;;;0.43;;
28166;SDS011;15455;53.376;-6.262;2022-07-25T15:11:39;1.10;;;0.40;;
28166;SDS011;15455;53.376;-6.262;2022-07-25T15:14:25;0.20;;;0.10;;
28166;SDS011;15455;53.376;-6.262;2022-07-25T15:17:11;1.13;;;0.40;;
28166;SDS011;15455;53.376;-6.262;2022-07-25T15:19:57;1.08;;;0.38;;
28166;SDS011;15455;53.376;-6.262;2022-07-25T15:22:43;2.58;;;0.32;;
28166;SDS011;15455;53.376;-6.262;2022-07-25T15:25:29;3.88;;;0.52;;
28166;SDS011;15455;53.376;-6.262;2022-07-25T15:28:36;0.70;;;0.43;;
28166;SDS011;15455;53.376;-6.262;2022-07-25T15:31:22;7.72;;;0.40;;
28166;SDS011;15455;53.376;-6.262;2022-07-25T15:34:10;3.85;;;0.65;;
28166;SDS011;15455;53.376;-6.262;2022-07-25T15:36:59;2.95;;;0.45;;
28166;SDS011;15455;53.376;-6.262;2022-07-25T15:39:45;3.13;;;0.60;;
28166;SDS011;15455;53.376;-6.262;2022-07-25T15:42:31;1.08;;;0.30;;
28166;SDS011;15455;53.376;-6.262;2022-07-25T15:45:17;4.97;;;0.55;;
28166;SDS011;15455;53.376;-6.262;2022-07-25T15:48:20;5.38;;;0.68;;
28166;SDS011;15455;53.376;-6.262;2022-07-25T15:51:07;4.53;;;0.30;;
28166;SDS011;15455;53.376;-6.262;2022-07-25T15:53:53;3.25;;;0.32;;
28166;SDS011;15455;53.376;-6.262;2022-07-25T15:56:38;0.65;;;0.28;;
28166;SDS011;15455;53.376;-6.262;2022-07-25T15:59:24;1.60;;;0.35;;
28166;SDS011;15455;53.376;-6.262;2022-07-25T16:02:10;1.33;;;0.40;;
28166;SDS011;15455;53.376;-6.262;2022-07-25T16:04:56;1.83;;;0.30;;
28166;SDS011;15455;53.376;-6.262;2022-07-25T16:07:42;3.03;;;0.50;;
28166;SDS011;15455;53.376;-6.262;2022-07-25T16:10:28;2.75;;;0.73;;
28166;SDS011;15455;53.376;-6.262;2022-07-25T16:13:15;0.52;;;0.35;;
28166;SDS011;15455;53.376;-6.262;2022-07-25T16:16:01;2.60;;;0.30;;
28166;SDS011;15455;53.376;-6.262;2022-07-25T16:18:47;4.40;;;0.63;;
28166;SDS011;15455;53.376;-6.262;2022-07-25T16:21:32;2.50;;;0.55;;
28166;SDS011;15455;53.376;-6.262;2022-07-25T16:24:18;2.97;;;0.60;;
28166;SDS011;15455;53.376;-6.262;2022-07-25T16:27:05;2.33;;;0.65;;
28166;SDS011;15455;53.376;-6.262;2022-07-25T16:29:52;4.32;;;0.63;;
28166;SDS011;15455;53.376;-6.262;2022-07-25T16:32:38;4.53;;;0.47;;
28166;SDS011;15455;53.376;-6.262;2022-07-25T16:35:23;1.45;;;0.43;;
28166;SDS011;15455;53.376;-6.262;2022-07-25T16:38:09;1.65;;;0.40;;